Flugplatz Halle-Oppin

Für EDAQ sind keine METAR/TAF Berichte vorhanden.
Es werden die Flugwettermeldungen vom Flugplatz Leipzig Halle in 19 km Entfernung angezeigt.

Bericht für EDDP

vom 21.04. um 13:20 UTC

Wind 8 kt aus 70°

Sichtweite 10 km oder mehr

gute Sicht, keine Wolken < 5000 ft, keine CB, keine Wettererscheinungen (CAVOK)

Temperatur 20.0°C

Taupunkt -1.0°C

Luftfeuchtigkeit 24%

Luftdruck 1021 hPa

keine wesentliche Wetteränderung innerhalb den nächsten 2 Stunden zu erwarten

EDDP 211320Z 07008KT 010V120 CAVOK 20/M01 Q1021 NOSIG

Prognose für EDDP

vom 21.04. um 11:00 UTC

Zwischen 12:00 UTC und 06:00 UTC

Wind 7 kt aus 70°

Sichtweite 10 km oder mehr

keine signifikanten Wettererscheinungen

keine Wolken


Am 22.04. zwischen 06:00 und 08:00 UTC übergehend zu

Wind 12 kt aus 70°

Sichtweite 10 km oder mehr

keine signifikanten Wettererscheinungen

keine Wolken


Am 22.04. zwischen 10:00 und 12:00 UTC übergehend zu

Wind 15 kt aus 70° in Böen 25 kt

Sichtweite 10 km oder mehr

keine signifikanten Wettererscheinungen

keine Wolken

TAF EDDP 211100Z 2112/2212 07007KT CAVOK BECMG 2206/2208 07012KT BECMG 2210/2212 07015G25KT
Impressum